Предлагаем Вашему вниманию английскую версию страницы: AUTOTAF.ME 35169 - aviation weather forecast Derzhavinsk

AUTOTAF 35169 - авиапрогноз Державинск

Сегодня рассвет 01:36 UTC, восход солнца 02:09 UTC,
местный полдень 07:19 UTC, заход солнца 12:28 UTC,
наступление темноты 13:02 UTC.

Краткий прогноз 35169 на 9 часов

AUTOTAF.ME 35169 212000Z 2121/2206 23004MPS 9999 OVC036     
  BECMG 2201/2203 25007MPS  
  FM220600 25012G17MPS 9999 BKN018

Детальный прогноз 35169 на 24 часа

AUTOTAF.ME 35169 212000Z 2121/2221 23004MPS 9999 OVC036 TX04/2121Z TNM01/2221Z   
  BECMG 2201/2203 25007MPS  
  FM220600 25012G17MPS 9999 BKN018 
  FM220900 27010G15MPS 1500 SHSN OVC014CB 
  FM221200 28010G15MPS 2000 SHSN OVC021CB 
  FM221500 28008G13MPS 9999 SCT035 
  BECMG 2216/2218 25004MPS

Подробный табличный прогноз

Время (UTC) miniAUTOTAF на 3 ч WX FZLVL
M AGL
ICE TURB Т
(°С)
Тd
(°С)
f(%) QNH
(гПа)
WIND/T
18 27007MPS 9999 BKN024 630 MOD FL70/FL90 MOD SFC/FL70 5 -3 59 1009 ...
21 23004MPS 9999 OVC036 630 FBL FL50/FL150 MOD FL40/FL70 4 -3 62 1009 ...
22.10.2020
00 24006MPS 9999 OVC036 630 MOD FL50/FL60 MOD SFC/FL50 4 -4 58 1009 ...
03 25007MPS 9999 BKN021 300 MOD FL40/FL50 MOD SFC/FL30 3 -3 65 1009 ...
06 25012G17MPS 9999 BKN018 270 FBL FL40/FL120 MOD SFC/FL40 4 -2 66 1010 ...
09 27010G15MPS 1500 SHSN OVC014CB SHSN 300 MOD FL40/FL50 MOD SFC/FL50 4 -4 55 1011 ...
12 28010G15MPS 2000 SHSN OVC021CB SHSN 270 MOD FL110/FL120 MOD SFC/FL50 3 -5 55 1013 ...
15 28008G13MPS 9999 SCT035 180 MOD FL50/FL60 MOD SFC/FL50 1 -9 48 1014 ...
18 25004MPS 9999 BKN035 60 MOD FL50/FL60 MOD SFC/FL70 0 -9 52 1015 ...
21 25005MPS 9999 BKN037 SFC MOD FL50/FL60 MOD FL40/FL70 -1 -7 61 1015 ...
23.10.2020
00 26005MPS 9999 BKN022 SFC FBL FL50/FL90 MOD FL50/FL70 -2 -7 68 1016 ...
03 26005MPS 9999 BKN015 SFC FBL FL40/FL90 -2 -6 72 1017 ...
06 28008G13MPS 9999 BKN022 SFC MOD FL40/FL90 MOD SFC/FL40 1 -8 52 1018 ...
09 28008G13MPS 9999 BKN030 90 FBL FL50/FL90 MOD SFC/FL50 2 -8 47 1019 ...
12 29008G13MPS 9999 BKN023 120 MOD FL40/FL50 MOD SFC/FL50 1 -8 50 1020 ...
15 28006MPS 9999 SCT039 SFC FBL FL50/FL70 MOD FL30/FL50 -0 -7 60 1023 ...


Широта 51.1°, долгота 66.3°, высота 300 м абс.
Средняя высота рельефа местности 274 м абс.
Прогнозы обновляются четыре раза в сутки: в 02, 08, 14, 20 ч всемирного времени.


Выбрать прогноз по другой модели Державинск
Онлайн-сводка гроз по Державинск (для РФ и ближнего зарубежья)
Карта фактических гроз в окрестностях Державинск
Динамические прогностические карты (ventusky.com)
Прогностическая карта высоты нижней границы облаков по Державинск (windy.com)
Выбрать другой город

Прогноз предназначен для личного научно-познавательного использования частными лицами
и не предназначен для принятия важных решений и выполнения реальных полётов воздушных судов

При копировании или ином использовании любых материалов данного сайта ссылка на © meteocenter.asia обязательна.

0.82/1.2